Weather reports worldwide

Advertisment
Lampedusa, Italy (16490): temperature & dewpoint: 17.04.2018 01:00:00 - 23.04.2018 01:00:00 (CEST)Lampedusa, Italy (16490): wind speed: 17.04.2018 01:00:00 - 23.04.2018 01:00:00 (CEST)Lampedusa, Italy (16490): wind direction: 17.04.2018 01:00:00 - 23.04.2018 01:00:00 (CEST)Lampedusa, Italy (16490): visibility: 17.04.2018 01:00:00 - 23.04.2018 01:00:00 (CEST)
Date & Time tt [°C] td [°C] ff [km/h] ff [kn] dd vv [km]
23.04.2018 01:00:00 - - - - - -
23.04.2018 00:00:00 - - - - - -
22.04.2018 23:00:00 - - - - - -
22.04.2018 22:00:00 17,0 15,0 21 11 E 10
22.04.2018 21:00:00 18,0 15,0 16 9 ENE 10
22.04.2018 20:00:00 18,0 15,0 11 6 SE 10
22.04.2018 19:00:00 19,0 15,0 11 6 SE 10
22.04.2018 18:00:00 19,0 15,0 11 6 SE 10
22.04.2018 17:00:00 19,0 16,0 9 5 ESE 10
22.04.2018 16:00:00 20,0 15,0 15 8 SE 10
22.04.2018 15:00:00 20,0 14,0 15 8 SSE 10
22.04.2018 14:00:00 19,0 15,0 16 9 SSE 10
22.04.2018 13:00:00 18,0 14,0 15 8 SSE 10
22.04.2018 12:00:00 19,0 15,0 13 7 SE 10
22.04.2018 11:00:00 19,0 15,0 13 7 ESE 10
22.04.2018 10:00:00 17,0 16,0 5 3 SSE 10
22.04.2018 09:00:00 17,0 16,0 11 6 NNE 10
22.04.2018 08:00:00 16,0 15,0 8 4 NNE 10
22.04.2018 07:00:00 16,0 15,0 4 2 E 10
22.04.2018 06:00:00 16,0 15,0 2 1 - 10
22.04.2018 05:00:00 - - - - - -
22.04.2018 04:00:00 - - - - - -
22.04.2018 03:00:00 - - - - - -
22.04.2018 02:00:00 - - - - - -
22.04.2018 01:00:00 - - - - - -
22.04.2018 00:00:00 - - - - - -
21.04.2018 23:00:00 - - - - - -
21.04.2018 22:00:00 17,0 14,0 5 3 S 10
21.04.2018 21:00:00 17,0 14,0 8 4 S 10
21.04.2018 20:00:00 18,0 13,0 4 2 SE 10
21.04.2018 19:00:00 18,0 13,0 5 3 SSE 10
21.04.2018 18:00:00 19,0 13,0 5 3 S 10
21.04.2018 17:00:00 19,0 14,0 5 3 SSE 10
21.04.2018 16:00:00 19,0 14,0 5 3 ESE 10
21.04.2018 15:00:00 20,0 13,0 8 4 SW 10
21.04.2018 14:00:00 20,0 14,0 13 7 W 10
21.04.2018 13:00:00 20,0 12,0 8 4 NW 10
21.04.2018 12:00:00 20,0 14,0 13 7 NW 10
21.04.2018 11:00:00 20,0 14,0 13 7 NW 10
21.04.2018 10:00:00 20,0 12,0 11 6 NW 10
21.04.2018 09:00:00 19,0 13,0 9 5 NNW 10
21.04.2018 08:00:00 16,0 13,0 8 4 NW 10
21.04.2018 07:00:00 15,0 14,0 8 4 W 10
21.04.2018 06:00:00 15,0 14,0 9 5 W 10
21.04.2018 05:00:00 - - - - - -
21.04.2018 04:00:00 - - - - - -
21.04.2018 03:00:00 - - - - - -
21.04.2018 02:00:00 - - - - - -
21.04.2018 01:00:00 - - - - - -
21.04.2018 00:00:00 - - - - - -
20.04.2018 23:00:00 - - - - - -
20.04.2018 22:00:00 17,0 15,0 13 7 N 10
20.04.2018 21:00:00 17,0 15,0 11 6 N 10
20.04.2018 20:00:00 17,0 15,0 13 7 N 10
20.04.2018 19:00:00 18,0 15,0 11 6 NNW 10
20.04.2018 18:00:00 18,0 15,0 13 7 N 10
20.04.2018 17:00:00 19,0 15,0 13 7 N 10
20.04.2018 16:00:00 18,0 15,0 15 8 N 10
20.04.2018 15:00:00 18,0 15,0 16 9 NNE 10
20.04.2018 14:00:00 18,0 15,0 16 9 NNE 10
20.04.2018 13:00:00 18,0 15,0 16 9 N 10
20.04.2018 12:00:00 18,0 14,0 16 9 NNE 10
20.04.2018 11:00:00 18,0 14,0 21 11 N 10
20.04.2018 10:00:00 17,0 15,0 21 11 N 8
20.04.2018 09:00:00 - - - - - -
20.04.2018 08:00:00 16,0 15,0 18 10 NNE 8
20.04.2018 07:00:00 16,0 15,0 15 8 N 8
20.04.2018 06:00:00 16,0 15,0 15 8 N 8
20.04.2018 05:00:00 - - - - - -
20.04.2018 04:00:00 - - - - - -
20.04.2018 03:00:00 - - - - - -
20.04.2018 02:00:00 - - - - - -
20.04.2018 01:00:00 - - - - - -
20.04.2018 00:00:00 - - - - - -
19.04.2018 23:00:00 - - - - - -
19.04.2018 22:00:00 - - - - - -
19.04.2018 21:00:00 17,0 15,0 18 10 NNE 10
19.04.2018 20:00:00 17,0 15,0 18 10 NNE 10
19.04.2018 19:00:00 17,0 15,0 16 9 NNE 8
19.04.2018 18:00:00 18,0 15,0 15 8 NNE 8
19.04.2018 17:00:00 18,0 15,0 13 7 NNE 10
19.04.2018 16:00:00 18,0 15,0 11 6 ENE 10
19.04.2018 15:00:00 17,0 15,0 15 8 ENE 10
19.04.2018 14:00:00 17,0 15,0 16 9 ENE 8
19.04.2018 13:00:00 18,0 15,0 16 9 ENE 9
19.04.2018 12:00:00 18,0 15,0 16 9 ENE 7
19.04.2018 11:00:00 17,0 15,0 18 10 ENE 7
19.04.2018 10:00:00 17,0 15,0 18 10 NE 8
19.04.2018 09:00:00 16,0 15,0 18 10 NE 8
19.04.2018 08:00:00 16,0 15,0 18 10 NE 7
19.04.2018 07:00:00 15,0 15,0 18 10 NE 7
19.04.2018 06:00:00 16,0 15,0 18 10 NNE 6
19.04.2018 05:00:00 - - - - - -
19.04.2018 04:00:00 - - - - - -
19.04.2018 03:00:00 - - - - - -
19.04.2018 02:00:00 - - - - - -
19.04.2018 01:00:00 - - - - - -
19.04.2018 00:00:00 - - - - - -
18.04.2018 23:00:00 - - - - - -
18.04.2018 22:00:00 16,0 14,0 5 3 NE 10
18.04.2018 21:00:00 16,0 14,0 9 5 E 10
18.04.2018 20:00:00 15,0 14,0 8 4 E 10
18.04.2018 19:00:00 17,0 14,0 5 3 E 10
18.04.2018 18:00:00 17,0 14,0 8 4 NNE 10
18.04.2018 17:00:00 17,0 14,0 11 6 NW 10
18.04.2018 16:00:00 17,0 14,0 11 6 NW 10
18.04.2018 15:00:00 18,0 13,0 11 6 NW 10
18.04.2018 14:00:00 18,0 13,0 15 8 NNW 10
18.04.2018 13:00:00 17,0 14,0 11 6 N 10
18.04.2018 12:00:00 17,0 14,0 11 6 N 10
18.04.2018 11:00:00 16,0 14,0 11 6 NNW 10
18.04.2018 10:00:00 16,0 14,0 15 8 NNW 10
18.04.2018 09:00:00 16,0 14,0 18 10 N 10
18.04.2018 08:00:00 16,0 14,0 13 7 NNW 10
18.04.2018 07:00:00 16,0 14,0 15 8 NNW 10
18.04.2018 06:00:00 16,0 14,0 11 6 NNW 10
18.04.2018 05:00:00 - - - - - -
18.04.2018 04:00:00 - - - - - -
18.04.2018 03:00:00 - - - - - -
18.04.2018 02:00:00 - - - - - -
18.04.2018 01:00:00 - - - - - -
18.04.2018 00:00:00 - - - - - -
17.04.2018 23:00:00 - - - - - -
17.04.2018 22:00:00 16,0 13,0 18 10 NNW 10
17.04.2018 21:00:00 16,0 13,0 13 7 NNW 10
17.04.2018 20:00:00 16,0 13,0 16 9 NNW 10
17.04.2018 19:00:00 17,0 13,0 21 11 N 10
17.04.2018 18:00:00 17,0 13,0 26 14 N 10
17.04.2018 17:00:00 18,0 14,0 29 16 N 10
17.04.2018 16:00:00 18,0 13,0 29 16 NNW 10
17.04.2018 15:00:00 18,0 13,0 22 12 N 10
17.04.2018 14:00:00 18,0 13,0 22 12 N 10
17.04.2018 13:00:00 18,0 12,0 24 13 N 10
17.04.2018 12:00:00 19,0 12,0 21 11 N 10
17.04.2018 11:00:00 19,0 10,0 16 9 N 10
17.04.2018 10:00:00 18,0 11,0 22 12 N 10
17.04.2018 09:00:00 17,0 12,0 18 10 NNW 10
17.04.2018 08:00:00 16,0 11,0 13 7 NNW 10
17.04.2018 07:00:00 16,0 11,0 13 7 NNW 10
17.04.2018 06:00:00 15,0 12,0 11 6 NW 10
17.04.2018 05:00:00 - - - - - -
17.04.2018 04:00:00 - - - - - -
17.04.2018 03:00:00 - - - - - -
17.04.2018 02:00:00 - - - - - -
17.04.2018 01:00:00 - - - - - -

tt = temperature
td = dewpoint
ff = wind speed
dd = wind direction
vv = visibility

Next stations